createdAt,value
2023-05-22T00:01:06.756Z,12.33
2023-05-22T00:03:33.932Z,12.47
2023-05-22T00:06:00.734Z,12.55
2023-05-22T00:08:29.640Z,12.67
2023-05-22T00:10:56.750Z,12.52
2023-05-22T00:13:23.537Z,12.33
2023-05-22T00:15:50.393Z,12.33
2023-05-22T00:18:17.365Z,12.54
2023-05-22T00:20:46.725Z,12.38
2023-05-22T00:23:15.696Z,12.37
2023-05-22T00:25:43.195Z,12.50
2023-05-22T00:28:12.044Z,12.48
2023-05-22T00:30:38.979Z,12.53
2023-05-22T00:33:06.348Z,12.51
2023-05-22T00:35:33.743Z,12.57
2023-05-22T00:38:04.019Z,12.54
2023-05-22T00:40:31.032Z,12.26
2023-05-22T00:42:57.876Z,12.41
2023-05-22T00:45:24.682Z,12.43
2023-05-22T00:47:52.300Z,12.52
2023-05-22T00:50:19.437Z,12.45
2023-05-22T00:52:47.538Z,12.43
2023-05-22T00:55:15.257Z,12.46
2023-05-22T00:57:42.300Z,12.43
2023-05-22T01:00:13.836Z,12.35
2023-05-22T01:02:43.337Z,12.31
2023-05-22T01:05:13.299Z,12.40
2023-05-22T01:07:40.648Z,12.38
2023-05-22T01:10:08.174Z,12.36
2023-05-22T01:12:57.421Z,12.32
2023-05-22T01:15:35.578Z,12.41
2023-05-22T01:18:19.974Z,12.60
2023-05-22T01:21:10.411Z,12.72
2023-05-22T01:23:40.339Z,12.71
2023-05-22T01:26:12.921Z,12.80
2023-05-22T01:28:56.089Z,12.82
2023-05-22T01:31:31.600Z,12.69
2023-05-22T01:34:01.130Z,12.64
2023-05-22T01:36:31.430Z,12.61
2023-05-22T01:39:01.698Z,12.64
2023-05-22T01:41:29.981Z,12.64
2023-05-22T01:43:56.945Z,12.72
2023-05-22T01:46:30.420Z,12.79
2023-05-22T01:48:58.007Z,12.73
2023-05-22T01:51:36.855Z,12.71
2023-05-22T01:54:24.486Z,12.82
2023-05-22T01:57:07.714Z,12.85
2023-05-22T01:59:45.543Z,12.90
2023-05-22T02:02:17.951Z,12.86
2023-05-22T02:04:56.070Z,12.85
2023-05-22T02:07:25.142Z,12.81
2023-05-22T02:09:54.040Z,12.83
2023-05-22T02:12:22.004Z,12.87
2023-05-22T02:14:49.488Z,12.84
2023-05-22T02:17:18.222Z,12.72
2023-05-22T02:19:45.311Z,12.64
2023-05-22T02:22:14.898Z,12.64
2023-05-22T02:24:47.776Z,12.68
2023-05-22T02:27:14.532Z,12.64
2023-05-22T02:29:41.357Z,12.55
2023-05-22T02:32:08.696Z,12.45
2023-05-22T02:34:35.431Z,12.64
2023-05-22T02:37:05.401Z,12.75
2023-05-22T02:39:32.104Z,12.67
2023-05-22T02:41:58.863Z,12.73
2023-05-22T02:44:25.663Z,12.60
2023-05-22T02:46:52.495Z,12.62
2023-05-22T02:49:19.288Z,12.70
2023-05-22T02:51:47.942Z,12.68
2023-05-22T02:54:16.065Z,12.73
2023-05-22T02:56:43.715Z,12.75
2023-05-22T02:59:10.607Z,12.72
2023-05-22T03:01:38.842Z,12.70
2023-05-22T03:04:06.750Z,12.76
2023-05-22T03:06:35.416Z,12.72
2023-05-22T03:09:04.802Z,12.88
2023-05-22T03:11:32.256Z,12.80
2023-05-22T03:13:58.985Z,12.81
2023-05-22T03:16:26.781Z,12.72
2023-05-22T03:19:17.018Z,12.78
2023-05-22T03:21:48.499Z,12.77
2023-05-22T03:24:15.187Z,12.66
2023-05-22T03:26:42.097Z,12.72
2023-05-22T03:29:08.826Z,12.72
2023-05-22T03:31:36.098Z,12.87
2023-05-22T03:34:03.767Z,12.77
2023-05-22T03:36:34.007Z,12.84
2023-05-22T03:39:00.968Z,12.75
2023-05-22T03:41:27.732Z,12.77
2023-05-22T03:43:54.421Z,12.85
2023-05-22T03:46:21.437Z,12.79
2023-05-22T03:48:48.350Z,12.75
2023-05-22T03:51:15.082Z,12.65
2023-05-22T03:53:41.838Z,12.73
2023-05-22T03:56:08.583Z,12.77
2023-05-22T03:58:35.328Z,12.82
2023-05-22T04:01:02.103Z,12.81
2023-05-22T04:03:29.027Z,12.72
2023-05-22T04:05:57.053Z,12.67
2023-05-22T04:08:23.842Z,12.56
2023-05-22T04:10:50.555Z,12.57
2023-05-22T04:13:17.539Z,12.75
2023-05-22T04:15:46.907Z,12.86
2023-05-22T04:18:14.252Z,12.91
2023-05-22T04:20:41.156Z,12.84
2023-05-22T04:23:08.103Z,12.80
2023-05-22T04:25:34.845Z,12.91
2023-05-22T04:28:04.391Z,12.90
2023-05-22T04:30:34.229Z,12.87
2023-05-22T04:33:01.847Z,12.94
2023-05-22T04:35:29.723Z,12.95
2023-05-22T04:37:57.494Z,13.04
2023-05-22T04:40:24.213Z,13.08
2023-05-22T04:42:54.380Z,13.07
2023-05-22T04:45:25.418Z,13.15
2023-05-22T04:47:53.313Z,13.03
2023-05-22T04:50:20.724Z,13.00
2023-05-22T04:52:48.128Z,12.90
2023-05-22T04:55:14.894Z,12.98
2023-05-22T04:57:44.731Z,12.98
2023-05-22T05:00:13.945Z,13.06
2023-05-22T05:02:41.462Z,13.11
2023-05-22T05:05:08.771Z,13.13
2023-05-22T05:07:43.610Z,13.19
2023-05-22T05:10:10.619Z,13.28
2023-05-22T05:12:37.439Z,13.29
2023-05-22T05:15:04.807Z,13.19
2023-05-22T05:17:31.651Z,13.24
2023-05-22T05:19:58.324Z,13.25
2023-05-22T05:22:25.570Z,13.21
2023-05-22T05:24:52.313Z,12.98
2023-05-22T05:27:19.182Z,13.14
2023-05-22T05:29:46.805Z,13.09
2023-05-22T05:32:14.067Z,13.01
2023-05-22T05:34:41.561Z,13.06
2023-05-22T05:37:09.113Z,13.00
2023-05-22T05:39:35.957Z,13.06
2023-05-22T05:42:02.654Z,12.73
2023-05-22T05:44:29.384Z,12.42
2023-05-22T05:46:56.057Z,12.48
2023-05-22T05:49:22.767Z,12.37
2023-05-22T05:51:49.491Z,12.33
2023-05-22T05:54:16.170Z,12.43
2023-05-22T05:56:43.040Z,12.54
2023-05-22T05:59:10.096Z,12.50
2023-05-22T06:01:38.796Z,12.51
2023-05-22T06:04:05.872Z,12.47
2023-05-22T06:06:36.568Z,12.48
2023-05-22T06:09:07.362Z,12.42
2023-05-22T06:11:34.195Z,12.51
2023-05-22T06:14:08.417Z,12.85
2023-05-22T06:16:35.189Z,12.54
2023-05-22T06:19:02.169Z,12.58
2023-05-22T06:21:29.112Z,12.64
2023-05-22T06:23:55.792Z,12.78
2023-05-22T06:26:23.654Z,12.35
2023-05-22T06:28:51.920Z,12.60
2023-05-22T06:31:18.920Z,12.42
2023-05-22T06:33:45.821Z,12.76
2023-05-22T06:36:12.714Z,12.92
2023-05-22T06:38:39.465Z,12.62
2023-05-22T06:41:06.542Z,12.69
2023-05-22T06:43:33.548Z,12.75
2023-05-22T06:46:00.484Z,12.75
2023-05-22T06:48:27.244Z,12.77
2023-05-22T06:50:53.962Z,12.94
2023-05-22T06:53:20.617Z,12.90
2023-05-22T06:55:47.400Z,12.99
2023-05-22T06:58:14.107Z,12.77
2023-05-22T07:00:40.986Z,12.63
2023-05-22T07:03:07.824Z,12.87
2023-05-22T07:05:34.780Z,12.93
2023-05-22T07:08:01.684Z,13.02
2023-05-22T07:10:28.598Z,13.08
2023-05-22T07:12:55.393Z,12.73
2023-05-22T07:15:22.085Z,12.82
2023-05-22T07:17:49.398Z,12.85
2023-05-22T07:20:16.953Z,13.01
2023-05-22T07:22:43.768Z,12.67
2023-05-22T07:25:10.678Z,12.68
2023-05-22T07:27:37.474Z,12.62
2023-05-22T07:30:04.538Z,12.51
2023-05-22T07:32:31.405Z,12.88
2023-05-22T07:34:58.156Z,12.79
2023-05-22T07:37:25.107Z,13.01
2023-05-22T07:39:51.800Z,12.74
2023-05-22T07:42:18.799Z,12.98
2023-05-22T07:44:45.509Z,12.96
2023-05-22T07:47:12.160Z,13.18
2023-05-22T07:49:38.859Z,13.37
2023-05-22T07:52:05.964Z,13.08
2023-05-22T07:54:32.649Z,13.15
2023-05-22T07:57:03.325Z,13.20
2023-05-22T07:59:29.997Z,13.14
2023-05-22T08:01:58.367Z,13.59
2023-05-22T08:04:26.253Z,13.45
2023-05-22T08:06:53.151Z,13.46
2023-05-22T08:09:21.326Z,13.38
2023-05-22T08:11:48.185Z,13.68
2023-05-22T08:14:15.021Z,13.71
2023-05-22T08:16:41.798Z,13.62
2023-05-22T08:19:09.130Z,13.47
2023-05-22T08:21:37.741Z,13.39
2023-05-22T08:24:04.700Z,13.36
2023-05-22T08:26:33.407Z,13.43
2023-05-22T08:29:00.730Z,13.43
2023-05-22T08:31:29.340Z,13.15
2023-05-22T08:34:02.773Z,13.24
2023-05-22T08:36:34.214Z,13.40
2023-05-22T08:39:01.617Z,13.42
2023-05-22T08:41:29.416Z,13.43
2023-05-22T08:43:56.147Z,13.44
2023-05-22T08:46:26.571Z,13.46
2023-05-22T08:48:57.134Z,13.46
2023-05-22T08:51:29.329Z,13.39
2023-05-22T08:53:57.476Z,13.42
2023-05-22T08:56:25.528Z,13.63
2023-05-22T08:58:54.413Z,13.67
2023-05-22T09:01:21.788Z,13.76
2023-05-22T09:03:51.430Z,13.91
2023-05-22T09:06:18.687Z,13.67
2023-05-22T09:08:46.186Z,13.44
2023-05-22T09:11:13.360Z,13.63
2023-05-22T09:13:41.341Z,13.68
2023-05-22T09:16:13.463Z,13.74
2023-05-22T09:18:42.216Z,13.67
2023-05-22T09:21:21.710Z,13.80
2023-05-22T09:23:59.203Z,14.06
2023-05-22T09:26:29.456Z,13.69
2023-05-22T09:28:57.316Z,13.81
2023-05-22T09:31:24.129Z,13.67
2023-05-22T09:33:51.016Z,13.71
2023-05-22T09:36:17.993Z,13.70
2023-05-22T09:38:45.209Z,13.85
2023-05-22T09:41:11.958Z,13.86
2023-05-22T09:43:38.764Z,13.83
2023-05-22T09:46:05.585Z,13.82
2023-05-22T09:48:36.746Z,13.84
2023-05-22T09:51:04.341Z,14.07
2023-05-22T09:53:33.753Z,14.38
2023-05-22T09:56:02.172Z,14.49
2023-05-22T09:58:31.299Z,14.61
2023-05-22T10:00:59.379Z,14.83
2023-05-22T10:03:27.649Z,14.71
2023-05-22T10:05:58.827Z,14.65
2023-05-22T10:08:28.862Z,14.49
2023-05-22T10:10:56.234Z,14.78
2023-05-22T10:13:25.359Z,15.12
2023-05-22T10:15:53.355Z,15.05
2023-05-22T10:18:20.401Z,15.18
2023-05-22T10:20:49.030Z,15.11
2023-05-22T10:23:18.721Z,15.31
2023-05-22T10:25:45.996Z,15.45
2023-05-22T10:28:19.562Z,15.44
2023-05-22T10:31:10.053Z,15.77
2023-05-22T10:33:45.103Z,15.73
2023-05-22T10:36:24.578Z,16.01
2023-05-22T10:39:27.220Z,16.12
2023-05-22T10:41:54.196Z,16.54
2023-05-22T10:44:22.380Z,16.12
2023-05-22T10:46:53.013Z,16.08
2023-05-22T10:49:23.967Z,16.29
2023-05-22T10:51:57.133Z,16.19
2023-05-22T10:54:43.035Z,15.78
2023-05-22T10:57:12.260Z,15.94
2023-05-22T10:59:38.978Z,15.86
2023-05-22T11:02:07.736Z,15.88
2023-05-22T11:04:36.306Z,15.96
2023-05-22T11:07:05.182Z,15.45
2023-05-22T11:09:45.837Z,15.60
2023-05-22T11:12:28.459Z,15.28
2023-05-22T11:14:59.121Z,15.61
2023-05-22T11:17:29.939Z,15.62
2023-05-22T11:20:06.203Z,15.61
2023-05-22T11:22:36.032Z,15.44
2023-05-22T11:25:11.348Z,15.28
2023-05-22T11:27:40.716Z,15.15
2023-05-22T11:30:09.600Z,15.29
2023-05-22T11:32:37.837Z,15.45
2023-05-22T11:35:10.944Z,15.56
2023-05-22T11:37:40.980Z,15.79
2023-05-22T11:40:08.859Z,15.39
2023-05-22T11:42:36.307Z,15.48
2023-05-22T11:45:04.159Z,15.27
2023-05-22T11:47:31.858Z,15.42
2023-05-22T11:50:00.034Z,15.31
2023-05-22T11:52:31.659Z,15.14
2023-05-22T11:54:58.386Z,15.37
2023-05-22T11:57:25.256Z,15.20
2023-05-22T11:59:51.918Z,15.27
2023-05-22T12:02:19.653Z,15.54
2023-05-22T12:04:46.739Z,15.71
2023-05-22T12:07:13.502Z,15.85
2023-05-22T12:09:40.845Z,16.05
2023-05-22T12:12:11.552Z,16.35
2023-05-22T12:14:38.471Z,16.88
2023-05-22T12:17:05.349Z,16.80
2023-05-22T12:19:32.642Z,17.04
2023-05-22T12:21:59.651Z,16.91
2023-05-22T12:24:26.542Z,16.94
2023-05-22T12:26:56.817Z,17.05
2023-05-22T12:29:23.797Z,17.20
2023-05-22T12:31:51.036Z,16.63
2023-05-22T12:34:21.473Z,16.85
2023-05-22T12:36:48.430Z,16.60
2023-05-22T12:39:19.072Z,16.35
2023-05-22T12:41:46.541Z,16.60
2023-05-22T12:44:16.481Z,16.68
2023-05-22T12:46:43.656Z,17.03
2023-05-22T12:49:11.018Z,17.18
2023-05-22T12:51:37.745Z,17.23
2023-05-22T12:54:04.853Z,17.02
2023-05-22T12:56:31.933Z,17.13
2023-05-22T12:58:58.881Z,17.25
2023-05-22T13:01:26.358Z,16.94
2023-05-22T13:03:53.340Z,17.15
2023-05-22T13:06:20.631Z,17.26
2023-05-22T13:08:47.439Z,17.07
2023-05-22T13:11:14.188Z,17.33
2023-05-22T13:13:41.094Z,17.17
2023-05-22T13:16:09.127Z,17.29
2023-05-22T13:18:35.919Z,17.16
2023-05-22T13:21:02.694Z,17.54
2023-05-22T13:23:29.333Z,17.46
2023-05-22T13:25:56.050Z,17.57
2023-05-22T13:28:22.786Z,17.58
2023-05-22T13:30:49.453Z,17.60
2023-05-22T13:33:16.489Z,17.82
2023-05-22T13:35:43.176Z,17.67
2023-05-22T13:38:09.878Z,17.70
2023-05-22T13:40:37.052Z,18.03
2023-05-22T13:43:03.751Z,18.24
2023-05-22T13:45:31.286Z,18.09
2023-05-22T13:47:58.014Z,18.40
2023-05-22T13:50:24.737Z,18.32
2023-05-22T13:52:51.457Z,18.25
2023-05-22T13:55:18.170Z,18.11
2023-05-22T13:57:44.866Z,18.39
2023-05-22T14:00:12.872Z,18.14
2023-05-22T14:02:39.653Z,18.54
2023-05-22T14:05:06.877Z,18.37
2023-05-22T14:07:33.628Z,18.43
2023-05-22T14:10:01.533Z,18.60
2023-05-22T14:12:28.644Z,18.55
2023-05-22T14:14:55.404Z,18.07
2023-05-22T14:17:22.201Z,17.92
2023-05-22T14:19:48.930Z,18.21
2023-05-22T14:22:15.651Z,18.43
2023-05-22T14:24:42.824Z,18.38
2023-05-22T14:27:10.171Z,18.27
2023-05-22T14:29:37.033Z,18.53
2023-05-22T14:32:05.476Z,18.07
2023-05-22T14:34:32.748Z,18.12
2023-05-22T14:36:59.513Z,18.19
2023-05-22T14:39:26.304Z,18.47
2023-05-22T14:41:53.922Z,18.15
2023-05-22T14:44:22.599Z,18.17
2023-05-22T14:46:51.238Z,18.03
2023-05-22T14:49:18.399Z,18.23
2023-05-22T14:51:48.390Z,18.29
2023-05-22T14:54:19.299Z,18.34
2023-05-22T14:56:46.596Z,18.24
2023-05-22T14:59:14.355Z,18.32
2023-05-22T15:01:41.507Z,17.76
2023-05-22T15:04:09.042Z,18.13
2023-05-22T15:06:36.306Z,18.05
2023-05-22T15:09:03.496Z,18.08
2023-05-22T15:11:30.379Z,18.56
2023-05-22T15:13:57.220Z,18.58
2023-05-22T15:16:26.014Z,18.55
2023-05-22T15:18:52.917Z,18.44
2023-05-22T15:21:19.769Z,18.54
2023-05-22T15:23:47.312Z,18.23
2023-05-22T15:26:13.989Z,18.11
2023-05-22T15:28:41.017Z,18.12
2023-05-22T15:31:07.726Z,17.00
2023-05-22T15:33:34.472Z,16.35
2023-05-22T15:36:01.309Z,16.48
2023-05-22T15:38:31.245Z,16.28
2023-05-22T15:40:59.204Z,16.35
2023-05-22T15:43:28.075Z,16.47
2023-05-22T15:45:57.042Z,16.35
2023-05-22T15:48:25.412Z,15.81
2023-05-22T15:50:53.380Z,15.91
2023-05-22T15:53:22.124Z,15.97
2023-05-22T15:55:51.224Z,15.63
2023-05-22T15:58:18.229Z,15.60
2023-05-22T16:00:45.434Z,15.68
2023-05-22T16:03:13.093Z,15.34
2023-05-22T16:05:41.507Z,15.37
2023-05-22T16:08:11.975Z,15.41
2023-05-22T16:10:41.633Z,15.10
2023-05-22T16:13:10.692Z,15.09
2023-05-22T16:15:39.813Z,15.16
2023-05-22T16:18:07.618Z,14.93
2023-05-22T16:20:35.552Z,14.78
2023-05-22T16:23:02.481Z,14.85
2023-05-22T16:25:29.162Z,14.80
2023-05-22T16:27:56.560Z,14.80
2023-05-22T16:30:23.250Z,14.64
2023-05-22T16:32:50.029Z,14.82
2023-05-22T16:35:16.923Z,14.68
2023-05-22T16:37:43.643Z,14.81
2023-05-22T16:40:11.027Z,14.86
2023-05-22T16:42:43.034Z,15.17
2023-05-22T16:45:09.798Z,15.41
2023-05-22T16:47:36.521Z,15.59
2023-05-22T16:50:03.553Z,15.82
2023-05-22T16:52:30.793Z,15.68
2023-05-22T16:54:57.807Z,15.75
2023-05-22T16:57:27.562Z,15.72
2023-05-22T16:59:56.420Z,16.04
2023-05-22T17:02:24.573Z,15.86
2023-05-22T17:04:51.363Z,16.13
2023-05-22T17:07:18.232Z,16.06
2023-05-22T17:09:44.952Z,16.13
2023-05-22T17:12:11.650Z,15.83
2023-05-22T17:14:38.408Z,15.99
2023-05-22T17:17:05.312Z,15.76
2023-05-22T17:19:32.514Z,15.70
2023-05-22T17:21:59.350Z,15.81
2023-05-22T17:24:27.860Z,15.52
2023-05-22T17:26:54.614Z,15.59
2023-05-22T17:29:21.300Z,15.52
2023-05-22T17:31:48.197Z,15.59
2023-05-22T17:34:14.962Z,15.49
2023-05-22T17:36:43.298Z,15.79
2023-05-22T17:39:11.551Z,16.20
2023-05-22T17:41:38.361Z,16.10
2023-05-22T17:44:05.081Z,16.09
2023-05-22T17:46:32.136Z,16.11
2023-05-22T17:48:58.971Z,15.61
2023-05-22T17:51:25.732Z,15.81
2023-05-22T17:53:56.111Z,15.77
2023-05-22T17:56:23.618Z,15.79
2023-05-22T17:58:50.904Z,15.80
2023-05-22T18:01:18.663Z,15.97
2023-05-22T18:03:46.289Z,15.73
2023-05-22T18:06:13.389Z,15.64
2023-05-22T18:08:40.766Z,15.46
2023-05-22T18:11:07.469Z,15.32
2023-05-22T18:13:34.216Z,15.17
2023-05-22T18:16:02.367Z,15.53
2023-05-22T18:18:29.059Z,14.99
2023-05-22T18:20:58.624Z,15.47
2023-05-22T18:23:25.480Z,15.56
2023-05-22T18:25:52.373Z,15.49
2023-05-22T18:28:20.929Z,15.61
2023-05-22T18:30:49.684Z,15.55
2023-05-22T18:33:16.668Z,15.63
2023-05-22T18:35:43.732Z,15.67
2023-05-22T18:38:10.513Z,15.67
2023-05-22T18:40:37.237Z,15.61
2023-05-22T18:43:03.971Z,15.68
2023-05-22T18:45:30.651Z,15.56
2023-05-22T18:47:57.326Z,15.45
2023-05-22T18:50:24.160Z,15.60
2023-05-22T18:52:50.927Z,15.47
2023-05-22T18:55:17.619Z,15.44
2023-05-22T18:57:44.345Z,15.36
2023-05-22T19:00:11.326Z,15.47
2023-05-22T19:02:38.030Z,15.28
2023-05-22T19:05:05.254Z,15.47
2023-05-22T19:07:32.033Z,15.41
2023-05-22T19:09:59.242Z,15.33
2023-05-22T19:12:28.422Z,15.37
2023-05-22T19:14:55.065Z,15.22
2023-05-22T19:17:21.820Z,15.08
2023-05-22T19:19:48.542Z,15.12
2023-05-22T19:22:17.830Z,14.89
2023-05-22T19:24:45.008Z,14.93
2023-05-22T19:27:11.721Z,14.95
2023-05-22T19:29:38.433Z,14.67
2023-05-22T19:32:05.595Z,14.71
2023-05-22T19:34:32.343Z,14.60
2023-05-22T19:36:59.059Z,14.38
2023-05-22T19:39:25.944Z,14.59
2023-05-22T19:41:52.991Z,14.47
2023-05-22T19:44:19.650Z,14.56
2023-05-22T19:46:46.676Z,14.59
2023-05-22T19:49:13.659Z,14.39
2023-05-22T19:51:40.953Z,14.50
2023-05-22T19:54:07.714Z,14.46
2023-05-22T19:56:35.765Z,14.59
2023-05-22T19:59:02.460Z,14.48
2023-05-22T20:01:29.179Z,14.44
2023-05-22T20:03:56.310Z,14.41
2023-05-22T20:06:23.171Z,14.39
2023-05-22T20:08:49.832Z,14.32
2023-05-22T20:11:16.551Z,14.34
2023-05-22T20:13:43.208Z,14.37
2023-05-22T20:16:12.754Z,14.33
2023-05-22T20:18:41.179Z,14.11
2023-05-22T20:21:08.178Z,14.21
2023-05-22T20:23:34.941Z,14.31
2023-05-22T20:26:01.654Z,14.30
2023-05-22T20:28:28.533Z,14.36
2023-05-22T20:30:55.193Z,14.20
2023-05-22T20:33:22.055Z,13.94
2023-05-22T20:35:52.875Z,13.94
2023-05-22T20:38:20.066Z,14.03
2023-05-22T20:40:47.905Z,13.81
2023-05-22T20:43:15.143Z,13.84
2023-05-22T20:45:45.978Z,13.83
2023-05-22T20:48:13.852Z,13.66
2023-05-22T20:50:42.305Z,13.73
2023-05-22T20:53:09.098Z,13.64
2023-05-22T20:55:35.870Z,13.57
2023-05-22T20:58:02.597Z,13.47
2023-05-22T21:00:30.076Z,13.57
2023-05-22T21:02:58.341Z,13.52
2023-05-22T21:05:26.350Z,13.37
2023-05-22T21:07:53.148Z,13.58
2023-05-22T21:10:19.885Z,13.43
2023-05-22T21:12:46.622Z,13.37
2023-05-22T21:15:13.316Z,13.30
2023-05-22T21:17:40.287Z,13.25
2023-05-22T21:20:08.153Z,13.20
2023-05-22T21:22:34.860Z,12.99
2023-05-22T21:25:01.598Z,12.98
2023-05-22T21:27:28.305Z,13.10
2023-05-22T21:29:54.970Z,13.10
2023-05-22T21:32:21.668Z,13.05
2023-05-22T21:34:48.328Z,13.10
2023-05-22T21:37:15.017Z,12.98
2023-05-22T21:39:41.780Z,12.83
2023-05-22T21:42:08.878Z,12.94
2023-05-22T21:44:36.011Z,12.98
2023-05-22T21:47:02.833Z,12.85
2023-05-22T21:49:29.509Z,12.73
2023-05-22T21:51:56.180Z,12.72
2023-05-22T21:54:22.933Z,12.79
2023-05-22T21:56:49.644Z,12.59
2023-05-22T21:59:16.380Z,12.66
2023-05-22T22:01:43.205Z,12.71
2023-05-22T22:04:09.995Z,12.83
2023-05-22T22:06:37.050Z,12.82
2023-05-22T22:09:03.990Z,12.75
2023-05-22T22:11:30.787Z,12.67
2023-05-22T22:13:57.510Z,12.67
2023-05-22T22:16:24.536Z,12.73
2023-05-22T22:18:51.529Z,12.59
2023-05-22T22:21:18.311Z,12.51
2023-05-22T22:23:45.033Z,12.40
2023-05-22T22:26:14.514Z,12.31
2023-05-22T22:28:41.186Z,12.32
2023-05-22T22:31:07.876Z,12.30
2023-05-22T22:33:34.674Z,12.35
2023-05-22T22:36:01.922Z,12.25
2023-05-22T22:38:28.940Z,12.27
2023-05-22T22:40:55.728Z,12.13
2023-05-22T22:43:22.393Z,12.07
2023-05-22T22:45:49.102Z,12.08
2023-05-22T22:48:16.706Z,12.09
2023-05-22T22:50:44.139Z,12.02
2023-05-22T22:53:12.482Z,12.15
2023-05-22T22:55:39.596Z,12.22
2023-05-22T22:58:07.910Z,12.25
2023-05-22T23:00:34.584Z,12.26
2023-05-22T23:03:01.320Z,12.20
2023-05-22T23:05:28.280Z,12.14
2023-05-22T23:07:56.079Z,12.11
2023-05-22T23:10:22.851Z,12.02
2023-05-22T23:12:50.279Z,12.02
2023-05-22T23:15:17.220Z,11.87
2023-05-22T23:17:43.944Z,11.76
2023-05-22T23:20:11.062Z,11.70
2023-05-22T23:22:37.847Z,11.77
2023-05-22T23:25:04.889Z,11.79
2023-05-22T23:27:31.806Z,11.78
2023-05-22T23:29:58.533Z,11.79
2023-05-22T23:32:25.298Z,11.73
2023-05-22T23:34:52.131Z,11.78
2023-05-22T23:37:18.854Z,11.77
2023-05-22T23:39:45.554Z,11.64
2023-05-22T23:42:12.278Z,11.86
2023-05-22T23:44:39.040Z,11.78
2023-05-22T23:47:06.706Z,11.89
2023-05-22T23:49:33.668Z,11.80
2023-05-22T23:52:00.429Z,11.80
2023-05-22T23:54:27.112Z,11.79
2023-05-22T23:56:53.803Z,11.66
2023-05-22T23:59:22.001Z,11.70
